createdAt,value
2019-01-08T00:00:10.000Z,14.44
2019-01-08T00:01:19.679Z,18.72
2019-01-08T00:02:29.358Z,17.1
2019-01-08T00:03:39.274Z,19.2
2019-01-08T00:04:48.948Z,23.75
2019-01-08T00:05:58.116Z,22.8
2019-01-08T00:07:07.793Z,20.34
2019-01-08T00:08:16.960Z,21.47
2019-01-08T00:09:26.888Z,20.05
2019-01-08T00:10:36.568Z,24.99
2019-01-08T00:11:46.496Z,27.18
2019-01-08T00:12:56.172Z,24.52
2019-01-08T00:14:05.852Z,28.98
2019-01-08T00:15:15.024Z,25.65
2019-01-08T00:16:24.969Z,23.47
2019-01-08T00:17:34.395Z,26.89
2019-01-08T00:18:43.572Z,30.22
2019-01-08T00:19:52.992Z,32.69
2019-01-08T00:21:02.693Z,31.55
2019-01-08T00:22:12.122Z,32.59
2019-01-08T00:23:21.293Z,32.31
2019-01-08T00:24:30.970Z,26.32
2019-01-08T00:25:40.422Z,33.92
2019-01-08T00:26:50.346Z,29.84
2019-01-08T00:27:59.785Z,28.13
2019-01-08T00:29:09.227Z,27.18
2019-01-08T00:30:18.810Z,32.4
2019-01-08T00:31:28.238Z,35.25
2019-01-08T00:32:37.917Z,26.42
2019-01-08T00:33:47.586Z,34.32
2019-01-08T00:34:57.047Z,32.21
2019-01-08T00:36:06.732Z,33.64
2019-01-08T00:37:16.411Z,29.08
2019-01-08T00:38:26.343Z,32.59
2019-01-08T00:39:36.264Z,33.64
2019-01-08T00:40:45.945Z,32.4
2019-01-08T00:41:55.378Z,36.21
2019-01-08T00:43:04.809Z,34.11
2019-01-08T00:44:14.748Z,34.02
2019-01-08T00:45:24.429Z,35.25
2019-01-08T00:46:33.850Z,36.02
2019-01-08T00:47:43.523Z,32.78
2019-01-08T00:48:52.945Z,33.45
2019-01-08T00:50:02.626Z,35.06
2019-01-08T00:51:12.309Z,33.64
2019-01-08T00:52:22.233Z,25.56
2019-01-08T00:53:31.419Z,40.01
2019-01-08T00:54:41.091Z,39.25
2019-01-08T00:55:50.946Z,38.77
2019-01-08T00:57:00.616Z,34.5
2019-01-08T00:58:10.043Z,34.02
2019-01-08T00:59:19.520Z,37.92
2019-01-08T01:00:29.451Z,42.19
2019-01-08T01:01:39.386Z,40.39
2019-01-08T01:02:49.071Z,44.28
2019-01-08T01:03:58.503Z,45.71
2019-01-08T01:05:08.189Z,41.43
2019-01-08T01:06:18.118Z,43.71
2019-01-08T01:07:27.806Z,38.68
2019-01-08T01:08:37.251Z,44.09
2019-01-08T01:09:46.679Z,40.01
2019-01-08T01:10:56.363Z,44.85
2019-01-08T01:12:06.041Z,48.27
2019-01-08T01:13:15.716Z,47.42
2019-01-08T01:14:25.144Z,47.04
2019-01-08T01:15:35.071Z,42.86
2019-01-08T01:16:44.998Z,45.61
2019-01-08T01:17:54.420Z,42.1
2019-01-08T01:19:04.092Z,41.05
2019-01-08T01:20:13.779Z,46.19
2019-01-08T01:21:23.705Z,42.29
2019-01-08T01:22:33.478Z,45.61
2019-01-08T01:23:42.909Z,47.89
2019-01-08T01:24:52.592Z,45.71
2019-01-08T01:26:01.772Z,47.42
2019-01-08T01:27:11.452Z,45.04
2019-01-08T01:28:21.123Z,48.08
2019-01-08T01:29:30.804Z,52.26
2019-01-08T01:30:39.984Z,49.7
2019-01-08T01:31:49.672Z,50.37
2019-01-08T01:32:59.350Z,52.1
2019-01-08T01:34:09.278Z,51.79
2019-01-08T01:35:18.954Z,47.23
2019-01-08T01:36:28.879Z,53.41
2019-01-08T01:37:38.570Z,49.41
2019-01-08T01:38:48.247Z,48.56
2019-01-08T01:39:57.921Z,51.43
2019-01-08T01:41:07.449Z,52.93
2019-01-08T01:42:17.129Z,53.78
2019-01-08T01:43:27.049Z,53.59
2019-01-08T01:44:36.480Z,51.12
2019-01-08T01:45:45.911Z,52.17
2019-01-08T01:46:55.339Z,45.33
2019-01-08T01:48:05.074Z,53.78
2019-01-08T01:49:14.256Z,49.41
2019-01-08T01:50:23.684Z,47.13
2019-01-08T01:51:33.113Z,52.93
2019-01-08T01:52:42.789Z,49.22
2019-01-08T01:53:52.711Z,46.94
2019-01-08T01:55:02.641Z,51.22
2019-01-08T01:56:12.318Z,51.7
2019-01-08T01:57:22.249Z,52.45
2019-01-08T01:58:31.932Z,49.79
2019-01-08T01:59:41.857Z,55.97
2019-01-08T02:00:51.539Z,53.78
2019-01-08T02:02:01.554Z,52.93
2019-01-08T02:03:10.988Z,46.75
2019-01-08T02:04:20.412Z,47.52
2019-01-08T02:05:30.081Z,52.93
2019-01-08T02:06:39.505Z,53.69
2019-01-08T02:07:48.930Z,52.84
2019-01-08T02:08:58.679Z,51.12
2019-01-08T02:10:08.355Z,51.89
2019-01-08T02:11:18.288Z,53.31
2019-01-08T02:12:27.964Z,47.89
2019-01-08T02:13:37.220Z,47.99
2019-01-08T02:14:47.155Z,50.37
2019-01-08T02:15:57.087Z,50.84
2019-01-08T02:17:06.761Z,48.37
2019-01-08T02:18:16.689Z,44.85
2019-01-08T02:19:26.613Z,48.08
2019-01-08T02:20:36.546Z,51.98
2019-01-08T02:21:45.979Z,50.65
2019-01-08T02:22:55.906Z,49.7
2019-01-08T02:24:05.827Z,51.31
2019-01-08T02:25:15.496Z,51.2
2019-01-08T02:26:25.171Z,48.54
2019-01-08T02:27:35.096Z,49.32
2019-01-08T02:28:45.029Z,53.03
2019-01-08T02:29:54.713Z,47.99
2019-01-08T02:31:04.822Z,44.57
2019-01-08T02:32:14.777Z,40.56
2019-01-08T02:33:26.802Z,42.38
2019-01-08T02:34:36.796Z,40.17
2019-01-08T02:35:46.477Z,40.1
2019-01-08T02:36:55.920Z,37.52
2019-01-08T02:38:05.604Z,40.08
2019-01-08T02:39:15.274Z,38.18
2019-01-08T02:40:24.700Z,37.23
2019-01-08T02:41:34.374Z,42.65
2019-01-08T02:42:44.574Z,42.36
2019-01-08T02:43:54.177Z,44.17
2019-01-08T02:45:03.930Z,41.41
2019-01-08T02:46:14.231Z,41.79
2019-01-08T02:47:24.572Z,41.41
2019-01-08T02:48:34.255Z,41.41
2019-01-08T02:49:44.187Z,39.51
2019-01-08T02:50:53.873Z,41.03
2019-01-08T02:52:03.809Z,37.61
2019-01-08T02:53:13.485Z,40.1
2019-01-08T02:54:23.587Z,44.26
2019-01-08T02:55:33.893Z,42.55
2019-01-08T02:56:43.568Z,40.84
2019-01-08T02:57:53.274Z,39.23
2019-01-08T02:59:02.451Z,38.96
2019-01-08T03:00:12.130Z,41.41
2019-01-08T03:01:21.814Z,37.9
2019-01-08T03:02:31.492Z,34.19
2019-01-08T03:03:41.174Z,30.3
2019-01-08T03:04:52.036Z,25.45
2019-01-08T03:06:02.046Z,23.93
2019-01-08T03:07:11.716Z,21.75
2019-01-08T03:08:21.210Z,21.08
2019-01-08T03:09:31.130Z,19.66
2019-01-08T03:10:40.809Z,19.28
2019-01-08T03:11:50.479Z,16.24
2019-01-08T03:13:00.152Z,15.1
2019-01-08T03:14:09.831Z,13.87
2019-01-08T03:15:19.002Z,13.48
2019-01-08T03:16:28.686Z,12.73
2019-01-08T03:17:38.369Z,10.92
2019-01-08T03:18:48.047Z,10.64
2019-01-08T03:19:57.480Z,10.64
2019-01-08T03:21:06.913Z,7.12
2019-01-08T03:22:16.600Z,5.88
2019-01-08T03:23:26.025Z,4.46
2019-01-08T03:24:35.950Z,3.41
2019-01-08T03:25:45.373Z,0.76
2019-01-08T03:26:55.069Z,1.52
2019-01-08T03:28:04.999Z,1.51
2019-01-08T03:29:14.677Z,3.03
2019-01-08T03:30:24.356Z,4.56
2019-01-08T03:31:34.299Z,2.56
2019-01-08T03:32:44.172Z,0.47
2019-01-08T03:33:53.842Z,0
2019-01-08T03:35:03.780Z,1.32
2019-01-08T03:36:13.458Z,2.18
2019-01-08T03:37:22.881Z,0
2019-01-08T03:38:32.810Z,0.57
2019-01-08T03:39:42.488Z,0
2019-01-08T03:40:52.159Z,0
2019-01-08T03:42:01.832Z,0.57
2019-01-08T03:43:11.257Z,0.09
2019-01-08T03:44:21.184Z,0.66
2019-01-08T03:45:31.110Z,0.66
2019-01-08T03:46:40.786Z,3.22
2019-01-08T03:47:50.711Z,3.61
2019-01-08T03:49:00.384Z,5.98
2019-01-08T03:50:09.825Z,10.35
2019-01-08T03:51:19.502Z,8.92
2019-01-08T03:52:29.178Z,6.36
2019-01-08T03:53:38.605Z,5.41
2019-01-08T03:54:48.036Z,6.17
2019-01-08T03:55:57.964Z,5.88
2019-01-08T03:57:07.638Z,4.36
2019-01-08T03:58:16.567Z,6.64
2019-01-08T03:59:25.996Z,4.27
2019-01-08T04:00:35.926Z,7.98
2019-01-08T04:01:45.597Z,9.68
2019-01-08T04:02:55.022Z,9.01
2019-01-08T04:04:04.696Z,8.83
2019-01-08T04:05:14.128Z,4.93
2019-01-08T04:06:23.818Z,5.98
2019-01-08T04:07:33.747Z,5.32
2019-01-08T04:08:43.417Z,6.93
2019-01-08T04:09:53.086Z,6.83
2019-01-08T04:11:02.772Z,6.45
2019-01-08T04:12:12.196Z,7.03
2019-01-08T04:13:22.121Z,3.41
2019-01-08T04:14:32.047Z,4.74
2019-01-08T04:15:41.980Z,4.84
2019-01-08T04:16:51.658Z,3.32
2019-01-08T04:18:01.585Z,3.32
2019-01-08T04:19:11.264Z,1.14
2019-01-08T04:20:21.188Z,1.51
2019-01-08T04:21:30.864Z,1.99
2019-01-08T04:22:40.790Z,1.9
2019-01-08T04:23:50.227Z,2.09
2019-01-08T04:24:59.702Z,4.74
2019-01-08T04:26:09.380Z,4.36
2019-01-08T04:27:19.060Z,4.46
2019-01-08T04:28:28.727Z,5.12
2019-01-08T04:29:38.152Z,9.87
2019-01-08T04:30:55.550Z,11.3
2019-01-08T04:32:04.979Z,10.72
2019-01-08T04:33:14.904Z,11.39
2019-01-08T04:34:24.327Z,10.72
2019-01-08T04:35:33.755Z,11.58
2019-01-08T04:36:43.437Z,12.81
2019-01-08T04:37:53.375Z,15.76
2019-01-08T04:39:03.055Z,15
2019-01-08T04:40:12.234Z,15.67
2019-01-08T04:41:21.659Z,16.33
2019-01-08T04:42:31.326Z,15.85
2019-01-08T04:43:40.751Z,20.14
2019-01-08T04:44:50.754Z,18.89
2019-01-08T04:46:00.674Z,20.03
2019-01-08T04:47:10.099Z,20.22
2019-01-08T04:48:19.523Z,17.94
2019-01-08T04:49:28.951Z,19.85
2019-01-08T04:50:38.875Z,23.73
2019-01-08T04:51:48.300Z,27.34
2019-01-08T04:52:57.965Z,29.06
2019-01-08T04:54:07.402Z,26.2
2019-01-08T04:55:17.086Z,28.48
2019-01-08T04:56:26.768Z,31.23
2019-01-08T04:57:36.449Z,32.2
2019-01-08T04:58:46.119Z,25.44
2019-01-08T05:00:01.485Z,27.83
2019-01-08T05:01:10.908Z,24.58
2019-01-08T05:02:20.572Z,25.26
2019-01-08T05:03:30.248Z,19.65
2019-01-08T05:04:40.169Z,22.41
2019-01-08T05:05:49.604Z,26.01
2019-01-08T05:07:01.205Z,26.4
2019-01-08T05:08:11.196Z,25.15
2019-01-08T05:09:20.625Z,22.89
2019-01-08T05:10:30.055Z,20.31
2019-01-08T05:11:39.478Z,21.64
2019-01-08T05:12:50.560Z,21.36
2019-01-08T05:14:00.246Z,21.64
2019-01-08T05:15:10.170Z,19.84
2019-01-08T05:16:20.096Z,22.02
2019-01-08T05:17:29.787Z,20.22
2019-01-08T05:18:39.466Z,21.64
2019-01-08T05:19:49.431Z,25.26
2019-01-08T05:20:58.866Z,25.25
2019-01-08T05:22:08.300Z,24.58
2019-01-08T05:23:17.978Z,20.79
2019-01-08T05:24:27.648Z,21.55
2019-01-08T05:25:37.328Z,21.36
2019-01-08T05:26:46.758Z,22.89
2019-01-08T05:27:56.179Z,21.36
2019-01-08T05:29:06.098Z,25.15
2019-01-08T05:30:15.771Z,22.8
2019-01-08T05:31:25.443Z,25.15
2019-01-08T05:32:34.649Z,20.03
2019-01-08T05:33:44.336Z,18.41
2019-01-08T05:34:55.229Z,17.29
2019-01-08T05:36:05.161Z,16.71
2019-01-08T05:37:14.833Z,17.19
2019-01-08T05:38:24.767Z,19.66
2019-01-08T05:39:34.186Z,18.13
2019-01-08T05:40:43.866Z,16.61
2019-01-08T05:41:53.286Z,20.99
2019-01-08T05:43:02.780Z,19.27
2019-01-08T05:44:12.460Z,15.66
2019-01-08T05:45:22.395Z,16.42
2019-01-08T05:46:31.836Z,17.56
2019-01-08T05:47:41.257Z,21.55
2019-01-08T05:48:51.185Z,20.22
2019-01-08T05:50:00.861Z,19.08
2019-01-08T05:51:10.046Z,18.98
2019-01-08T05:52:19.730Z,18.89
2019-01-08T05:53:29.412Z,18.7
2019-01-08T05:54:38.837Z,17.37
2019-01-08T05:55:48.515Z,18.32
2019-01-08T05:56:58.435Z,16.23
2019-01-08T05:58:08.360Z,17.18
2019-01-08T05:59:18.049Z,17.18
2019-01-08T06:00:27.478Z,16.23
2019-01-08T06:01:37.163Z,14.71
2019-01-08T06:02:46.843Z,15.09
2019-01-08T06:03:56.522Z,14.33
2019-01-08T06:05:05.698Z,13.67
2019-01-08T06:06:15.627Z,10.35
2019-01-08T06:07:25.312Z,9.97
2019-01-08T06:08:34.741Z,10.63
2019-01-08T06:09:44.662Z,11.01
2019-01-08T06:10:54.335Z,9.97
2019-01-08T06:12:04.294Z,10.25
2019-01-08T06:13:13.711Z,10.06
2019-01-08T06:14:23.727Z,7.4
2019-01-08T06:15:33.403Z,9.39
2019-01-08T06:16:42.829Z,9.2
2019-01-08T06:17:52.518Z,10.53
2019-01-08T06:19:01.689Z,10.72
2019-01-08T06:20:11.359Z,12.81
2019-01-08T06:21:20.536Z,13.95
2019-01-08T06:22:30.212Z,12.81
2019-01-08T06:23:39.392Z,16.62
2019-01-08T06:24:48.819Z,18.6
2019-01-08T06:25:58.255Z,22.21
2019-01-08T06:27:07.951Z,23.54
2019-01-08T06:28:17.378Z,19.93
2019-01-08T06:29:26.551Z,20.98
2019-01-08T06:30:35.971Z,22.31
2019-01-08T06:31:45.641Z,19.74
2019-01-08T06:32:55.315Z,23.35
2019-01-08T06:34:04.492Z,20.12
2019-01-08T06:35:14.427Z,26.77
2019-01-08T06:36:23.851Z,26.58
2019-01-08T06:37:33.697Z,27.34
2019-01-08T06:38:43.639Z,24.79
2019-01-08T06:39:53.574Z,27.26
2019-01-08T06:41:03.036Z,23.65
2019-01-08T06:42:12.717Z,25.84
2019-01-08T06:43:22.146Z,23.83
2019-01-08T06:44:31.823Z,21.36
2019-01-08T06:45:41.752Z,21.83
2019-01-08T06:46:51.679Z,20.12
2019-01-08T06:48:01.614Z,12.72
2019-01-08T06:49:11.289Z,18.71
2019-01-08T06:50:20.464Z,16.99
2019-01-08T06:51:30.144Z,17.47
2019-01-08T06:52:39.573Z,20.31
2019-01-08T06:53:49.003Z,16.89
2019-01-08T06:54:58.682Z,18.41
2019-01-08T06:56:08.610Z,17.1
2019-01-08T06:57:19.975Z,18.04
2019-01-08T06:58:29.409Z,19.37
2019-01-08T06:59:39.082Z,19.95
2019-01-08T07:00:48.757Z,20.99
2019-01-08T07:01:58.187Z,24.32
2019-01-08T07:03:08.115Z,27.16
2019-01-08T07:04:17.554Z,27.16
2019-01-08T07:05:26.475Z,25.25
2019-01-08T07:06:36.156Z,22.02
2019-01-08T07:07:45.825Z,20.8
2019-01-08T07:08:55.749Z,20.23
2019-01-08T07:10:05.185Z,23.25
2019-01-08T07:11:15.105Z,24.6
2019-01-08T07:12:24.780Z,21.56
2019-01-08T07:13:34.458Z,20.6
2019-01-08T07:14:44.617Z,21.08
2019-01-08T07:15:54.872Z,22.31
2019-01-08T07:17:04.647Z,21.74
2019-01-08T07:18:14.586Z,21.18
2019-01-08T07:19:24.512Z,20.7
2019-01-08T07:20:33.445Z,18.14
2019-01-08T07:21:43.121Z,16.33
2019-01-08T07:22:52.799Z,15.39
2019-01-08T07:24:02.724Z,14.52
2019-01-08T07:25:12.155Z,14.24
2019-01-08T07:26:22.080Z,14.14
2019-01-08T07:27:31.755Z,13.85
2019-01-08T07:28:41.180Z,12.34
2019-01-08T07:29:50.608Z,11.96
2019-01-08T07:31:00.538Z,12.05
2019-01-08T07:32:10.297Z,11.02
2019-01-08T07:33:20.291Z,10.44
2019-01-08T07:34:30.222Z,9.78
2019-01-08T07:35:40.255Z,6.83
2019-01-08T07:36:50.190Z,5.12
2019-01-08T07:37:59.800Z,6.55
2019-01-08T07:39:09.835Z,6.55
2019-01-08T07:40:19.370Z,4.84
2019-01-08T07:41:28.801Z,5.51
2019-01-08T07:42:38.445Z,4.55
2019-01-08T07:43:47.620Z,1.51
2019-01-08T07:44:57.158Z,0
2019-01-08T07:46:06.336Z,0
2019-01-08T07:47:16.548Z,0
2019-01-08T07:48:26.225Z,0
2019-01-08T07:49:35.655Z,0
2019-01-08T07:50:44.842Z,0
2019-01-08T07:51:54.586Z,0
2019-01-08T07:53:04.263Z,0
2019-01-08T07:54:13.816Z,0
2019-01-08T07:55:23.248Z,0
2019-01-08T07:56:32.928Z,0
2019-01-08T07:57:42.598Z,0
2019-01-08T07:58:52.155Z,0
2019-01-08T08:00:01.834Z,0
2019-01-08T08:01:11.764Z,0
2019-01-08T08:02:21.425Z,0
2019-01-08T08:03:31.102Z,0
2019-01-08T08:04:47.435Z,0
2019-01-08T08:05:57.486Z,0
2019-01-08T08:07:07.414Z,0
2019-01-08T08:08:16.863Z,0
2019-01-08T08:09:26.542Z,0
2019-01-08T08:10:36.039Z,0
2019-01-08T08:11:45.707Z,0
2019-01-08T08:12:54.893Z,0
2019-01-08T08:14:04.580Z,0
2019-01-08T08:15:14.447Z,0
2019-01-08T08:16:24.178Z,0
2019-01-08T08:17:34.105Z,0
2019-01-08T08:18:44.033Z,0
2019-01-08T08:19:53.959Z,0
2019-01-08T08:21:03.652Z,0
2019-01-08T08:22:12.830Z,0
2019-01-08T08:23:22.600Z,0
2019-01-08T08:24:32.284Z,0
2019-01-08T08:25:41.467Z,0
2019-01-08T08:26:50.655Z,0
2019-01-08T08:28:00.087Z,0
2019-01-08T08:29:09.532Z,0
2019-01-08T08:30:19.463Z,0
2019-01-08T08:31:31.220Z,0
2019-01-08T08:32:40.898Z,0
2019-01-08T08:33:50.337Z,0
2019-01-08T08:35:07.812Z,0
2019-01-08T08:36:18.243Z,0
2019-01-08T08:37:28.210Z,0
2019-01-08T08:38:37.639Z,0
2019-01-08T08:39:47.372Z,0
2019-01-08T08:40:57.336Z,0
2019-01-08T08:42:07.371Z,0
2019-01-08T08:43:17.059Z,0
2019-01-08T08:44:26.731Z,0
2019-01-08T08:45:36.404Z,0
2019-01-08T08:46:46.080Z,0
2019-01-08T08:47:55.753Z,0
2019-01-08T08:49:05.435Z,0
2019-01-08T08:50:15.121Z,0
2019-01-08T08:51:25.047Z,0
2019-01-08T08:52:34.971Z,0
2019-01-08T08:53:51.911Z,0
2019-01-08T08:55:02.370Z,0
2019-01-08T08:56:12.050Z,0
2019-01-08T08:57:21.848Z,0
2019-01-08T08:58:31.401Z,0
2019-01-08T08:59:41.278Z,0
2019-01-08T09:00:50.702Z,0
2019-01-08T09:02:00.052Z,0
2019-01-08T09:03:09.810Z,0
2019-01-08T09:04:19.164Z,0
2019-01-08T09:05:28.599Z,0
2019-01-08T09:06:38.618Z,0
2019-01-08T09:07:48.046Z,0
2019-01-08T09:08:57.685Z,0
2019-01-08T09:10:07.673Z,0
2019-01-08T09:11:17.620Z,0
2019-01-08T09:12:27.643Z,0
2019-01-08T09:13:37.367Z,0
2019-01-08T09:14:47.048Z,0
2019-01-08T09:15:56.650Z,0
2019-01-08T09:17:06.534Z,0
2019-01-08T09:18:16.221Z,0
2019-01-08T09:19:25.670Z,0
2019-01-08T09:20:35.358Z,0
2019-01-08T09:21:45.038Z,0
2019-01-08T09:22:54.811Z,0
2019-01-08T09:24:04.582Z,0
2019-01-08T09:25:14.013Z,0
2019-01-08T09:26:23.803Z,0
2019-01-08T09:27:33.295Z,0
2019-01-08T09:28:43.269Z,0
2019-01-08T09:29:52.700Z,0
2019-01-08T09:31:02.132Z,0
2019-01-08T09:32:20.842Z,0
2019-01-08T09:33:30.544Z,0
2019-01-08T09:34:40.472Z,0
2019-01-08T09:35:50.789Z,0
2019-01-08T09:37:00.583Z,0
2019-01-08T09:38:09.513Z,0
2019-01-08T09:39:18.803Z,0
2019-01-08T09:40:28.521Z,0
2019-01-08T09:41:37.703Z,0
2019-01-08T09:42:46.991Z,0
2019-01-08T09:43:56.924Z,0
2019-01-08T09:45:06.348Z,0
2019-01-08T09:46:16.474Z,0
2019-01-08T09:47:26.176Z,0
2019-01-08T09:48:35.776Z,0
2019-01-08T09:49:45.930Z,0
2019-01-08T09:50:55.726Z,0
2019-01-08T09:52:05.430Z,0
2019-01-08T09:53:15.360Z,0
2019-01-08T09:54:24.547Z,0
2019-01-08T09:55:33.742Z,0
2019-01-08T09:56:43.516Z,0
2019-01-08T09:57:53.445Z,0
2019-01-08T09:59:02.877Z,0
2019-01-08T10:00:12.506Z,0
2019-01-08T10:01:26.658Z,0
2019-01-08T10:02:36.347Z,0
2019-01-08T10:03:46.105Z,0
2019-01-08T10:04:55.330Z,0
2019-01-08T10:06:05.208Z,0
2019-01-08T10:07:14.888Z,0
2019-01-08T10:08:24.570Z,0
2019-01-08T10:09:33.994Z,0
2019-01-08T10:10:43.672Z,0
2019-01-08T10:11:53.606Z,0
2019-01-08T10:13:03.666Z,0
2019-01-08T10:14:13.197Z,0
2019-01-08T10:15:22.844Z,0
2019-01-08T10:16:32.523Z,0
2019-01-08T10:17:41.958Z,0
2019-01-08T10:18:51.840Z,0
2019-01-08T10:20:01.769Z,0
2019-01-08T10:21:11.539Z,0
2019-01-08T10:22:21.266Z,0
2019-01-08T10:23:30.868Z,0
2019-01-08T10:24:40.401Z,0
2019-01-08T10:25:50.066Z,0
2019-01-08T10:26:59.754Z,0
2019-01-08T10:28:09.301Z,0
2019-01-08T10:29:18.820Z,0
2019-01-08T10:30:28.455Z,0
2019-01-08T10:31:38.141Z,0
2019-01-08T10:32:47.758Z,0
2019-01-08T10:33:57.360Z,0
2019-01-08T10:35:07.288Z,0
2019-01-08T10:36:16.976Z,0
2019-01-08T10:37:26.614Z,0
2019-01-08T10:38:36.855Z,0
2019-01-08T10:39:46.534Z,0
2019-01-08T10:40:56.281Z,0
2019-01-08T10:42:06.211Z,0
2019-01-08T10:43:15.995Z,0
2019-01-08T10:44:26.132Z,0
2019-01-08T10:45:37.189Z,0
2019-01-08T10:46:46.627Z,0
2019-01-08T10:47:56.056Z,0
2019-01-08T10:49:05.992Z,0
2019-01-08T10:50:15.994Z,0
2019-01-08T10:51:25.413Z,0
2019-01-08T10:52:35.351Z,0
2019-01-08T10:53:45.126Z,0
2019-01-08T10:54:55.061Z,0
2019-01-08T10:56:05.133Z,0
2019-01-08T10:57:15.170Z,0
2019-01-08T10:58:25.066Z,0
2019-01-08T10:59:34.770Z,0
2019-01-08T11:00:44.443Z,0
2019-01-08T11:01:54.371Z,0
2019-01-08T11:03:04.476Z,0
2019-01-08T11:04:14.151Z,0
2019-01-08T11:05:25.716Z,0
2019-01-08T11:06:35.785Z,0
2019-01-08T11:07:45.458Z,0
2019-01-08T11:08:55.503Z,0
2019-01-08T11:10:05.073Z,0
2019-01-08T11:11:15.195Z,0
2019-01-08T11:12:25.129Z,0
2019-01-08T11:13:34.872Z,0
2019-01-08T11:14:44.831Z,0
2019-01-08T11:15:54.504Z,0
2019-01-08T11:17:04.267Z,0
2019-01-08T11:18:14.311Z,0
2019-01-08T11:19:24.134Z,0
2019-01-08T11:20:33.807Z,0
2019-01-08T11:21:43.695Z,0
2019-01-08T11:22:53.622Z,0
2019-01-08T11:24:03.383Z,0
2019-01-08T11:25:13.161Z,0
2019-01-08T11:26:22.955Z,0
2019-01-08T11:27:32.632Z,0
2019-01-08T11:28:43.217Z,0
2019-01-08T11:29:53.232Z,0
2019-01-08T11:31:02.778Z,0
2019-01-08T11:32:12.830Z,0
2019-01-08T11:33:22.269Z,0
2019-01-08T11:34:32.088Z,0
2019-01-08T11:35:44.855Z,0
2019-01-08T11:36:54.539Z,0
2019-01-08T11:38:04.075Z,0
2019-01-08T11:39:13.868Z,0
2019-01-08T11:40:23.577Z,0
2019-01-08T11:41:33.421Z,0
2019-01-08T11:42:43.208Z,0
2019-01-08T11:43:53.239Z,0
2019-01-08T11:45:03.133Z,0
2019-01-08T11:46:12.811Z,0
2019-01-08T11:47:22.350Z,0
2019-01-08T11:48:32.023Z,0
2019-01-08T11:49:41.796Z,0
2019-01-08T11:50:51.653Z,0
2019-01-08T11:52:01.090Z,0
2019-01-08T11:53:10.785Z,0
2019-01-08T11:54:20.685Z,0
2019-01-08T11:55:30.536Z,0
2019-01-08T11:56:39.966Z,0
2019-01-08T11:57:50.191Z,0
2019-01-08T11:58:59.754Z,0
2019-01-08T12:00:09.537Z,0
2019-01-08T12:01:19.350Z,0
2019-01-08T12:02:29.323Z,0
2019-01-08T12:03:39.000Z,0
2019-01-08T12:04:48.996Z,0
2019-01-08T12:05:59.876Z,0
2019-01-08T12:07:09.591Z,0
2019-01-08T12:08:18.767Z,0
2019-01-08T12:09:27.945Z,0
2019-01-08T12:10:37.627Z,0
2019-01-08T12:11:46.804Z,0
2019-01-08T12:12:55.991Z,0
2019-01-08T12:14:05.654Z,0
2019-01-08T12:15:14.834Z,0
2019-01-08T12:16:24.517Z,0
2019-01-08T12:17:34.438Z,0
2019-01-08T12:18:43.864Z,0
2019-01-08T12:19:54.690Z,0
2019-01-08T12:21:04.376Z,0
2019-01-08T12:22:14.062Z,0
2019-01-08T12:23:23.995Z,0
2019-01-08T12:24:33.925Z,0
2019-01-08T12:25:43.599Z,0
2019-01-08T12:26:53.343Z,0
2019-01-08T12:28:02.976Z,0
2019-01-08T12:29:12.664Z,0
2019-01-08T12:30:22.615Z,0
2019-01-08T12:31:32.310Z,0
2019-01-08T12:32:41.730Z,0
2019-01-08T12:33:51.263Z,0
2019-01-08T12:35:00.972Z,0
2019-01-08T12:36:10.657Z,0
2019-01-08T12:37:20.085Z,0
2019-01-08T12:38:30.008Z,0
2019-01-08T12:39:39.198Z,0
2019-01-08T12:40:49.127Z,0
2019-01-08T12:41:58.811Z,0
2019-01-08T12:43:08.744Z,0
2019-01-08T12:44:18.422Z,0
2019-01-08T12:45:28.104Z,0
2019-01-08T12:46:37.538Z,0
2019-01-08T12:47:47.470Z,0
2019-01-08T12:48:57.006Z,0
2019-01-08T12:50:06.679Z,0
2019-01-08T12:51:15.869Z,0
2019-01-08T12:52:25.552Z,0
2019-01-08T12:53:35.494Z,0
2019-01-08T12:54:45.426Z,0
2019-01-08T12:55:55.116Z,0.19
2019-01-08T12:57:04.298Z,4.46
2019-01-08T12:58:14.222Z,3.13
2019-01-08T12:59:24.151Z,2.28
2019-01-08T13:00:33.884Z,6.55
2019-01-08T13:01:43.671Z,5.98
2019-01-08T13:02:53.105Z,6.45
2019-01-08T13:04:02.534Z,8.16
2019-01-08T13:05:12.523Z,3.22
2019-01-08T13:06:21.695Z,12.72
2019-01-08T13:07:31.378Z,3.8
2019-01-08T13:08:40.561Z,8.07
2019-01-08T13:09:50.488Z,7.5
2019-01-08T13:11:00.185Z,3.89
2019-01-08T13:12:09.425Z,0.85
2019-01-08T13:13:18.859Z,4.46
2019-01-08T13:14:28.559Z,5.88
2019-01-08T13:15:38.237Z,0.57
2019-01-08T13:16:48.164Z,4.17
2019-01-08T13:17:57.090Z,1.61
2019-01-08T13:19:06.777Z,4.65
2019-01-08T13:20:16.453Z,4.27
2019-01-08T13:21:26.378Z,2.28
2019-01-08T13:22:36.055Z,0.76
2019-01-08T13:23:45.486Z,0
2019-01-08T13:24:54.914Z,0
2019-01-08T13:26:04.846Z,6.55
2019-01-08T13:27:14.782Z,5.6
2019-01-08T13:28:25.960Z,8.07
2019-01-08T13:29:35.892Z,1.99
2019-01-08T13:30:45.819Z,1.42
2019-01-08T13:31:55.244Z,10.63
2019-01-08T13:33:04.443Z,10.06
2019-01-08T13:34:14.129Z,6.64
2019-01-08T13:35:24.058Z,5.79
2019-01-08T13:36:33.275Z,5.41
2019-01-08T13:37:42.962Z,4.55
2019-01-08T13:38:52.647Z,3.89
2019-01-08T13:40:02.432Z,3.99
2019-01-08T13:41:12.380Z,6.36
2019-01-08T13:42:22.069Z,7.97
2019-01-08T13:43:32.102Z,11.58
2019-01-08T13:44:41.805Z,5.88
2019-01-08T13:45:51.243Z,5.88
2019-01-08T13:47:00.197Z,9.97
2019-01-08T13:48:09.930Z,10.82
2019-01-08T13:49:19.602Z,8.92
2019-01-08T13:50:29.525Z,10.63
2019-01-08T13:51:39.200Z,12.24
2019-01-08T13:52:48.978Z,11.58
2019-01-08T13:53:58.915Z,17.75
2019-01-08T13:55:08.591Z,18.51
2019-01-08T13:56:18.278Z,20.31
2019-01-08T13:57:27.708Z,14.05
2019-01-08T13:58:37.132Z,9.2
2019-01-08T13:59:46.624Z,2.84
2019-01-08T14:00:55.798Z,0
2019-01-08T14:02:05.720Z,0
2019-01-08T14:03:15.397Z,0
2019-01-08T14:04:24.834Z,0
2019-01-08T14:05:34.764Z,0
2019-01-08T14:06:44.687Z,0
2019-01-08T14:07:53.695Z,0
2019-01-08T14:09:03.626Z,0
2019-01-08T14:10:13.054Z,0
2019-01-08T14:11:22.982Z,0
2019-01-08T14:12:32.913Z,0
2019-01-08T14:13:42.335Z,0
2019-01-08T14:14:52.100Z,0
2019-01-08T14:16:01.785Z,0
2019-01-08T14:17:11.285Z,0
2019-01-08T14:18:20.462Z,0
2019-01-08T14:19:29.905Z,0
2019-01-08T14:20:39.585Z,0
2019-01-08T14:21:49.019Z,0
2019-01-08T14:22:58.706Z,0
2019-01-08T14:24:08.134Z,0
2019-01-08T14:25:17.812Z,0
2019-01-08T14:26:27.255Z,0
2019-01-08T14:27:36.704Z,0
2019-01-08T14:28:45.985Z,0
2019-01-08T14:29:55.921Z,0
2019-01-08T14:31:05.307Z,0
2019-01-08T14:32:15.138Z,0.47
2019-01-08T14:33:24.816Z,0
2019-01-08T14:34:34.237Z,0.66
2019-01-08T14:35:43.920Z,0
2019-01-08T14:36:53.359Z,2.09
2019-01-08T14:38:02.793Z,2.56
2019-01-08T14:39:12.237Z,0.66
2019-01-08T14:40:22.157Z,4.55
2019-01-08T14:41:31.887Z,7.12
2019-01-08T14:42:41.880Z,7.12
2019-01-08T14:43:51.313Z,8.16
2019-01-08T14:45:00.606Z,16.89
2019-01-08T14:46:10.061Z,19.18
2019-01-08T14:47:19.896Z,13.1
2019-01-08T14:48:29.576Z,18.41
2019-01-08T14:49:39.010Z,13.95
2019-01-08T14:50:48.694Z,16.04
2019-01-08T14:51:58.133Z,12.72
2019-01-08T14:53:07.966Z,13.85
2019-01-08T14:54:17.998Z,17.08
2019-01-08T14:55:27.485Z,20.03
2019-01-08T14:56:36.924Z,19.56
2019-01-08T14:57:46.469Z,15.95
2019-01-08T14:58:56.161Z,23.34
2019-01-08T15:00:06.108Z,17.37
2019-01-08T15:01:16.059Z,19.56
2019-01-08T15:02:25.249Z,16.99
2019-01-08T15:03:34.965Z,13.39
2019-01-08T15:04:44.416Z,14.24
2019-01-08T15:05:53.132Z,9.67
2019-01-08T15:07:02.634Z,9.3
2019-01-08T15:08:12.330Z,14.62
2019-01-08T15:09:21.871Z,9.3
2019-01-08T15:10:31.345Z,9.01
2019-01-08T15:11:41.042Z,9.01
2019-01-08T15:12:50.470Z,2.66
2019-01-08T15:14:00.398Z,0
2019-01-08T15:15:10.096Z,0
2019-01-08T15:16:20.245Z,0
2019-01-08T15:17:29.671Z,0
2019-01-08T15:18:39.099Z,0
2019-01-08T15:19:49.018Z,0
2019-01-08T15:20:58.540Z,0
2019-01-08T15:22:08.570Z,1.61
2019-01-08T15:23:18.247Z,0
2019-01-08T15:24:27.941Z,0
2019-01-08T15:25:37.875Z,0
2019-01-08T15:26:47.355Z,0
2019-01-08T15:27:56.794Z,0
2019-01-08T15:29:06.477Z,0.38
2019-01-08T15:30:15.904Z,1.04
2019-01-08T15:31:25.581Z,0
2019-01-08T15:32:35.287Z,2.18
2019-01-08T15:33:45.011Z,2.28
2019-01-08T15:34:54.436Z,0
2019-01-08T15:36:04.365Z,0
2019-01-08T15:37:13.789Z,0
2019-01-08T15:38:23.229Z,0
2019-01-08T15:39:32.652Z,1.99
2019-01-08T15:40:42.333Z,1.51
2019-01-08T15:41:52.013Z,0.76
2019-01-08T15:43:04.150Z,0
2019-01-08T15:44:17.917Z,0
2019-01-08T15:45:27.873Z,0.09
2019-01-08T15:46:37.886Z,0
2019-01-08T15:47:47.561Z,0.95
2019-01-08T15:48:57.237Z,3.03
2019-01-08T15:50:06.912Z,2.94
2019-01-08T15:51:16.602Z,0
2019-01-08T15:52:26.298Z,0
2019-01-08T15:53:36.223Z,0